• Join FlightAware (Why Join?)
  • Login
  • US Flag 
07:57PM EDT


 

Airport Tracker/Info


-or-


 

Live Flight TrackerFlight Track Log ✈ SWA862 ✈ 05-Apr-2013 ✈ KTPA - KRDU

Flight Track Log - Related Links

Times and Time Zones

All times are in EDT time to prevent confusion due to time zone crossing. See the SWA862 flight status page for this flight to view local times or setup timezone preferences in your user account.

Time Position Orientation Groundspeed Altitude Reporting Facility
EDT Latitude Longitude Course Direction KTS MPH feet Rate Location/Type
06:14PM 27.9833 -82.5333 360° North 134 154 700  Level Tampa TRACON
06:15PM 28.0333 -82.5333 360° North 184 212 2,100 2,040 Climbing Tampa TRACON
06:16PM 28.0833 -82.5167 16° North 221 254 4,400 2,580 Climbing Tampa TRACON
06:16PM 28.1411 -82.5253 353° North 261 300 6,800 3,480 Climbing Jacksonville Center
06:17PM 28.2183 -82.5369 352° North 301 346 10,700 3,300 Climbing Jacksonville Center
06:18PM 28.3081 -82.5483 354° North 301 346 13,400 3,000 Climbing Jacksonville Center
06:19PM 28.4042 -82.5575 355° North 321 369 16,800 3,120 Climbing Jacksonville Center
06:20PM 28.5042 -82.5714 353° North 348 400 19,700 2,640 Climbing Jacksonville Center
06:21PM 28.6086 -82.5828 355° North 366 421 22,100 2,100 Climbing Jacksonville Center
06:22PM 28.7172 -82.5967 354° North 374 430 24,000 900 Climbing Jacksonville Center
06:23PM 28.8278 -82.6131 353° North 384 442 24,000 900 Level Jacksonville Center
06:24PM 28.9386 -82.6269 354° North 391 450 25,900 1,320 Climbing Jacksonville Center
06:25PM 29.0533 -82.6431 353° North 403 464 26,700 1,080 Climbing Jacksonville Center
06:26PM 29.1661 -82.6572 354° North 429 494 28,100 2,100 Climbing Jacksonville Center
06:27PM 29.2831 -82.6736 353° North 429 494 31,000 2,100 Climbing Jacksonville Center
06:28PM 29.4019 -82.6900 353° North 429 494 32,300 900 Climbing Jacksonville Center
06:29PM 29.5503 -82.6969 358° North 451 519 32,900 1,200 Climbing Jacksonville Center
06:30PM 29.6858 -82.6942 North 477 549 34,800 1,440 Climbing Jacksonville Center
06:31PM 29.8194 -82.6914 North 478 550 35,800 900 Climbing Jacksonville Center
06:32PM 29.9594 -82.6911 360° North 492 566 36,600 900 Climbing Jacksonville Center
06:33PM 30.0847 -82.6861 North 499 574 37,700 1,140 Climbing Jacksonville Center
06:34PM 30.2267 -82.6858 360° North 493 567 38,900 600 Climbing Jacksonville Center
06:35PM 30.3625 -82.6881 359° North 493 567 39,000  Climbing Jacksonville Center
06:36PM 30.4961 -82.6828 North 482 555 39,000  Level Jacksonville Center
06:37PM 30.6233 -82.6319 19° North 472 543 39,000  Level Jacksonville Center
06:38PM 30.7506 -82.5686 23° Northeast 478 550 39,000  Level Jacksonville Center
06:39PM 30.8797 -82.5053 23° Northeast 488 562 39,000  Level Jacksonville Center
06:40PM 31.0069 -82.4442 22° Northeast 493 567 39,000  Level Jacksonville Center
06:41PM 31.1361 -82.3806 23° Northeast 493 567 39,000  Level Jacksonville Center
06:42PM 31.2633 -82.3214 22° Northeast 493 567 39,000  Level Jacksonville Center
06:43PM 31.3883 -82.2597 23° Northeast 493 567 39,000  Level Jacksonville Center
06:44PM 31.5175 -82.1956 24° Northeast 493 567 39,000  Level Jacksonville Center
06:45PM 31.5018 -82.2013 24° Northeast  Level FlightAware Approximate
06:45PM 31.6403 -82.1311 24° Northeast 493 567 39,000  Level Jacksonville Center
06:46PM 31.7797 -82.0617 23° Northeast 483 556 39,000  Level Jacksonville Center
06:47PM 31.8942 -82.0067 22° Northeast 488 562 39,000  Level Jacksonville Center
06:48PM 32.0336 -81.9392 22° Northeast 488 562 39,000  Level Jacksonville Center
06:49PM 32.1561 -81.8817 22° Northeast 486 559 39,000  Level Jacksonville Center
06:50PM 32.2706 -81.8286 21° North 480 552 39,000  Level Jacksonville Center
06:51PM 32.4100 -81.7631 22° Northeast 480 552 39,000  Level Jacksonville Center
06:52PM 32.5306 -81.7050 22° Northeast 475 547 39,000  Level Jacksonville Center
06:53PM 32.6428 -81.6517 22° Northeast 475 547 39,000  Level Jacksonville Center
06:54PM 32.7756 -81.5733 26° Northeast 475 547 39,000  Level Jacksonville Center
06:55PM 32.8914 -81.4875 32° Northeast 475 547 39,000  Level Jacksonville Center
06:56PM 33.0075 -81.4039 31° Northeast 480 552 39,000  Level Jacksonville Center
06:57PM 33.1233 -81.3150 33° Northeast 485 558 39,000  Level Jacksonville Center
06:58PM 33.2369 -81.2336 31° Northeast 485 558 39,000 -360 Level Jacksonville Center
06:59PM 33.3528 -81.1469 32° Northeast 485 558 38,300 -900 Descending Jacksonville Center
07:00PM 33.4683 -81.0600 32° Northeast 485 558 37,300 -900 Descending Jacksonville Center
07:01PM 33.5675 -80.9881 31° Northeast 485 558 36,500 -900 Descending Jacksonville Center
07:02PM 33.6789 -80.9033 32° Northeast 474 545 35,600 -960 Descending Jacksonville Center
07:03PM 33.7922 -80.8208 31° Northeast 474 545 34,600 -960 Descending Jacksonville Center
07:04PM 33.9014 -80.7358 33° Northeast 469 540 33,700 -1,200 Descending Jacksonville Center
07:05PM 34.0106 -80.6578 31° Northeast 463 533 32,300 -1,980 Descending Jacksonville Center
07:06PM 34.1136 -80.5775 33° Northeast 451 519 29,800 -2,640 Descending Jacksonville Center
07:07PM 34.2081 -80.5047 33° Northeast 425 489 27,100 -2,220 Descending Jacksonville Center
07:08PM 34.2964 -80.4294 35° Northeast 401 461 25,400 -1,680 Descending Jacksonville Center
07:09PM 34.3614 -80.3369 50° Northeast 375 432 23,800 -1,200 Descending Jacksonville Center
07:10PM 34.4306 -80.2519 45° Northeast 360 414 23,000 -420 Descending Jacksonville Center
07:11PM 34.4997 -80.1717 44° Northeast 349 402 23,000  Level Jacksonville Center
07:13PM 34.6664 -80.1094 17° North 333 383 23,000  Level Washington Center
07:14PM 34.7597 -80.0717 18° North 345 397 23,000  Level Washington Center
07:15PM 34.8481 -79.9956 35° Northeast 345 397 23,000  Level Washington Center
07:16PM 34.9219 -79.9133 42° Northeast 345 397 23,000 -480 Level Washington Center
07:17PM 34.9939 -79.8311 43° Northeast 345 397 22,100 -1,320 Descending Washington Center
07:18PM 35.0653 -79.7561 41° Northeast 345 397 20,400 -1,800 Descending Washington Center
07:19PM 35.1328 -79.6783 43° Northeast 335 386 18,600 -1,800 Descending Washington Center
07:20PM 35.2019 -79.6056 41° Northeast 324 373 16,900 -1,800 Descending Washington Center
07:21PM 35.2511 -79.5675 32° Northeast 323 372 15,700 -1,920 Descending Washington Center
07:21PM 35.2769 -79.5458 34° Northeast 319 367 15,000 -1,860 Descending Washington Center
07:21PM 35.2983 -79.5342 24° Northeast 317 365 14,600 -1,620 Descending Washington Center
07:22PM 35.3517 -79.4933 32° Northeast 314 361 13,400 -1,800 Descending Washington Center
07:22PM 35.3731 -79.4817 24° Northeast 311 358 12,800 -1,500 Descending Washington Center
07:23PM 35.4264 -79.4408 32° Northeast 309 356 11,900 -1,140 Descending Washington Center
07:24PM 35.4542 -79.4269 22° Northeast 307 353 11,600 -1,200 Descending Washington Center
07:24PM 35.4969 -79.3933 33° Northeast 298 343 10,700 -1,260 Descending Washington Center
07:25PM 35.5450 -79.3192 51° Northeast 275 316 9,600 -1,200 Descending Washington Center
07:26PM 35.5850 -79.2417 58° Northeast 268 308 8,400 -1,320 Descending Washington Center
07:27PM 35.6247 -79.1669 57° Northeast 263 303 7,000 -1,380 Descending Washington Center
07:28PM 35.6672 -79.0794 59° Northeast 256 295 5,400 -1,080 Descending Washington Center
07:29PM 35.6981 -79.0192 58° Northeast 253 291 4,900 -720 Descending Washington Center
07:30PM 35.7353 -78.9594 52° Northeast 240 276 4,200 -840 Descending Washington Center
07:30PM 35.7461 -78.9447 48° Northeast 212 244 3,900 -1,200 Descending Washington Center
07:32PM 35.7892 -78.8925 45° Northeast 199 229 2,600 -1,200 Descending Washington Center
07:32PM 35.8217 -78.8506 46° Northeast 187 215 1,600 -1,020 Descending Washington Center
07:33PM 35.8519 -78.8133 45° Northeast 145 167 700 -900 Descending Washington Center
07:35PM 35.8667 -78.7833 51° Northeast  Level FlightAware Approximate
07:42PM 35.8776 -78.7875 51° Northeast  Level Estimated